sensor_id;sensor_type;location;lat;lon;timestamp;temperature;humidity
67893;DHT22;54688;52.376;16.744;2022-08-14T00:01:25;20.1;65.8
67893;DHT22;54688;52.376;16.744;2022-08-14T00:04:27;20;65.6
67893;DHT22;54688;52.376;16.744;2022-08-14T00:07:29;20;65.9
67893;DHT22;54688;52.376;16.744;2022-08-14T00:10:31;20;66.1
67893;DHT22;54688;52.376;16.744;2022-08-14T00:13:33;19.9;65.9
67893;DHT22;54688;52.376;16.744;2022-08-14T00:16:36;19.9;66.2
67893;DHT22;54688;52.376;16.744;2022-08-14T00:19:38;19.8;66.3
67893;DHT22;54688;52.376;16.744;2022-08-14T00:22:40;19.8;66.5
67893;DHT22;54688;52.376;16.744;2022-08-14T00:25:42;19.7;66.7
67893;DHT22;54688;52.376;16.744;2022-08-14T00:28:46;19.6;66.8
67893;DHT22;54688;52.376;16.744;2022-08-14T00:31:48;19.7;66.8
67893;DHT22;54688;52.376;16.744;2022-08-14T00:34:50;19.6;66.8
67893;DHT22;54688;52.376;16.744;2022-08-14T00:37:52;19.6;66.7
67893;DHT22;54688;52.376;16.744;2022-08-14T00:40:55;19.6;66.4
67893;DHT22;54688;52.376;16.744;2022-08-14T00:43:57;19.6;66.3
67893;DHT22;54688;52.376;16.744;2022-08-14T00:47:00;19.6;66.3
67893;DHT22;54688;52.376;16.744;2022-08-14T00:50:03;19.5;66.3
67893;DHT22;54688;52.376;16.744;2022-08-14T00:53:06;19.5;66.6
67893;DHT22;54688;52.376;16.744;2022-08-14T00:56:09;19.4;66.8
67893;DHT22;54688;52.376;16.744;2022-08-14T00:59:12;19.4;66.8
67893;DHT22;54688;52.376;16.744;2022-08-14T01:02:14;19.3;67.1
67893;DHT22;54688;52.376;16.744;2022-08-14T01:05:17;19.3;67.6
67893;DHT22;54688;52.376;16.744;2022-08-14T01:08:21;19.2;67.8
67893;DHT22;54688;52.376;16.744;2022-08-14T01:11:25;19.2;68.6
67893;DHT22;54688;52.376;16.744;2022-08-14T01:14:29;19.1;68.9
67893;DHT22;54688;52.376;16.744;2022-08-14T01:17:31;19.1;69.1
67893;DHT22;54688;52.376;16.744;2022-08-14T01:20:34;19;68.9
67893;DHT22;54688;52.376;16.744;2022-08-14T01:23:37;18.9;69.6
67893;DHT22;54688;52.376;16.744;2022-08-14T01:26:41;18.8;69.8
67893;DHT22;54688;52.376;16.744;2022-08-14T01:29:44;18.8;70.4
67893;DHT22;54688;52.376;16.744;2022-08-14T01:32:48;18.7;69.8
67893;DHT22;54688;52.376;16.744;2022-08-14T01:35:50;18.6;70.1
67893;DHT22;54688;52.376;16.744;2022-08-14T01:38:53;18.6;70.3
67893;DHT22;54688;52.376;16.744;2022-08-14T01:41:57;18.6;70.5
67893;DHT22;54688;52.376;16.744;2022-08-14T01:44:59;18.6;70.7
67893;DHT22;54688;52.376;16.744;2022-08-14T01:48:01;18.5;71
67893;DHT22;54688;52.376;16.744;2022-08-14T01:51:04;18.4;71.5
67893;DHT22;54688;52.376;16.744;2022-08-14T01:54:08;18.4;71.5
67893;DHT22;54688;52.376;16.744;2022-08-14T01:57:11;18.4;71.7
67893;DHT22;54688;52.376;16.744;2022-08-14T02:00:15;18.3;71.6
67893;DHT22;54688;52.376;16.744;2022-08-14T02:03:16;18.3;71.8
67893;DHT22;54688;52.376;16.744;2022-08-14T02:06:19;18.2;71.6
67893;DHT22;54688;52.376;16.744;2022-08-14T02:09:22;18.2;71.8
67893;DHT22;54688;52.376;16.744;2022-08-14T02:12:25;18.2;72.1
67893;DHT22;54688;52.376;16.744;2022-08-14T02:15:27;18.1;72.2
67893;DHT22;54688;52.376;16.744;2022-08-14T02:18:29;18.1;72.5
67893;DHT22;54688;52.376;16.744;2022-08-14T02:21:32;18.1;72.6
67893;DHT22;54688;52.376;16.744;2022-08-14T02:24:34;18.1;72.8
67893;DHT22;54688;52.376;16.744;2022-08-14T02:27:37;18.1;72.6
67893;DHT22;54688;52.376;16.744;2022-08-14T02:30:39;18;72.7
67893;DHT22;54688;52.376;16.744;2022-08-14T02:33:41;17.9;72.9
67893;DHT22;54688;52.376;16.744;2022-08-14T02:36:44;17.9;73.7
67893;DHT22;54688;52.376;16.744;2022-08-14T02:39:49;17.9;73.2
67893;DHT22;54688;52.376;16.744;2022-08-14T02:42:51;17.9;73.1
67893;DHT22;54688;52.376;16.744;2022-08-14T02:45:54;17.8;73
67893;DHT22;54688;52.376;16.744;2022-08-14T02:48:56;17.8;73.5
67893;DHT22;54688;52.376;16.744;2022-08-14T02:51:59;17.7;73.4
67893;DHT22;54688;52.376;16.744;2022-08-14T02:55:02;17.7;73.4
67893;DHT22;54688;52.376;16.744;2022-08-14T02:58:05;17.7;72.9
67893;DHT22;54688;52.376;16.744;2022-08-14T03:01:09;17.6;72.6
67893;DHT22;54688;52.376;16.744;2022-08-14T03:04:11;17.6;72.7
67893;DHT22;54688;52.376;16.744;2022-08-14T03:07:14;17.6;72.7
67893;DHT22;54688;52.376;16.744;2022-08-14T03:10:20;17.6;72.6
67893;DHT22;54688;52.376;16.744;2022-08-14T03:13:27;17.5;72.6
67893;DHT22;54688;52.376;16.744;2022-08-14T03:16:30;17.5;72.7
67893;DHT22;54688;52.376;16.744;2022-08-14T03:19:32;17.4;73.1
67893;DHT22;54688;52.376;16.744;2022-08-14T03:22:34;17.4;73.4
67893;DHT22;54688;52.376;16.744;2022-08-14T03:25:36;17.4;73.4
67893;DHT22;54688;52.376;16.744;2022-08-14T03:28:38;17.3;73.4
67893;DHT22;54688;52.376;16.744;2022-08-14T03:31:42;17.4;73.4
67893;DHT22;54688;52.376;16.744;2022-08-14T03:34:44;17.4;73.4
67893;DHT22;54688;52.376;16.744;2022-08-14T03:37:46;17.3;73.3
67893;DHT22;54688;52.376;16.744;2022-08-14T03:40:47;17.3;73.6
67893;DHT22;54688;52.376;16.744;2022-08-14T03:43:51;17.3;73.7
67893;DHT22;54688;52.376;16.744;2022-08-14T03:46:54;17.2;74.2
67893;DHT22;54688;52.376;16.744;2022-08-14T03:49:57;17.2;74.6
67893;DHT22;54688;52.376;16.744;2022-08-14T03:52:59;17.2;74.9
67893;DHT22;54688;52.376;16.744;2022-08-14T03:56:03;17.1;74.8
67893;DHT22;54688;52.376;16.744;2022-08-14T03:59:07;17.1;75.4
67893;DHT22;54688;52.376;16.744;2022-08-14T04:02:10;17.1;75.5
67893;DHT22;54688;52.376;16.744;2022-08-14T04:05:12;17;75.3
67893;DHT22;54688;52.376;16.744;2022-08-14T04:08:14;17;75.7
67893;DHT22;54688;52.376;16.744;2022-08-14T04:11:17;17;75.6
67893;DHT22;54688;52.376;16.744;2022-08-14T04:14:20;17;75.7
67893;DHT22;54688;52.376;16.744;2022-08-14T04:17:22;17;75.8
67893;DHT22;54688;52.376;16.744;2022-08-14T04:20:24;17;75.8
67893;DHT22;54688;52.376;16.744;2022-08-14T04:23:27;17;76
67893;DHT22;54688;52.376;16.744;2022-08-14T04:26:29;17;76.2
67893;DHT22;54688;52.376;16.744;2022-08-14T04:29:32;17;75.9
67893;DHT22;54688;52.376;16.744;2022-08-14T04:32:37;17;75.5
67893;DHT22;54688;52.376;16.744;2022-08-14T04:35:39;17;75.2
67893;DHT22;54688;52.376;16.744;2022-08-14T04:38:41;17.1;75.1
67893;DHT22;54688;52.376;16.744;2022-08-14T04:41:44;17.1;74.9
67893;DHT22;54688;52.376;16.744;2022-08-14T04:44:45;17.1;74.7
67893;DHT22;54688;52.376;16.744;2022-08-14T04:47:47;17.2;74.5
67893;DHT22;54688;52.376;16.744;2022-08-14T04:50:50;17.2;74.4
67893;DHT22;54688;52.376;16.744;2022-08-14T04:53:53;17.2;74.4
67893;DHT22;54688;52.376;16.744;2022-08-14T04:56:56;17.2;74.4
67893;DHT22;54688;52.376;16.744;2022-08-14T04:59:58;17.3;74.3
67893;DHT22;54688;52.376;16.744;2022-08-14T05:03:01;17.3;74
67893;DHT22;54688;52.376;16.744;2022-08-14T05:06:04;17.4;74
67893;DHT22;54688;52.376;16.744;2022-08-14T05:09:08;17.5;73.7
67893;DHT22;54688;52.376;16.744;2022-08-14T05:12:11;17.6;73.5
67893;DHT22;54688;52.376;16.744;2022-08-14T05:15:13;17.6;73.8
67893;DHT22;54688;52.376;16.744;2022-08-14T05:18:16;17.7;73.6
67893;DHT22;54688;52.376;16.744;2022-08-14T05:21:20;17.7;73.5
67893;DHT22;54688;52.376;16.744;2022-08-14T05:24:22;17.8;73.3
67893;DHT22;54688;52.376;16.744;2022-08-14T05:27:24;17.9;73.2
67893;DHT22;54688;52.376;16.744;2022-08-14T05:30:27;17.9;73.3
67893;DHT22;54688;52.376;16.744;2022-08-14T05:33:30;18;73.1
67893;DHT22;54688;52.376;16.744;2022-08-14T05:36:32;18.1;73.9
67893;DHT22;54688;52.376;16.744;2022-08-14T05:39:34;18.2;72.8
67893;DHT22;54688;52.376;16.744;2022-08-14T05:42:37;18.2;71.8
67893;DHT22;54688;52.376;16.744;2022-08-14T05:45:40;18.4;71.2
67893;DHT22;54688;52.376;16.744;2022-08-14T05:48:42;18.5;70.4
67893;DHT22;54688;52.376;16.744;2022-08-14T05:51:47;18.6;69.9
67893;DHT22;54688;52.376;16.744;2022-08-14T05:54:49;18.7;69.5
67893;DHT22;54688;52.376;16.744;2022-08-14T05:57:52;18.8;69.2
67893;DHT22;54688;52.376;16.744;2022-08-14T06:00:55;18.9;68.9
67893;DHT22;54688;52.376;16.744;2022-08-14T06:03:58;19;68.7
67893;DHT22;54688;52.376;16.744;2022-08-14T06:07:01;19.1;68.3
67893;DHT22;54688;52.376;16.744;2022-08-14T06:10:03;19.2;67.6
67893;DHT22;54688;52.376;16.744;2022-08-14T06:13:06;19.3;67.2
67893;DHT22;54688;52.376;16.744;2022-08-14T06:16:08;19.4;66.8
67893;DHT22;54688;52.376;16.744;2022-08-14T06:19:10;19.6;66
67893;DHT22;54688;52.376;16.744;2022-08-14T06:22:12;19.7;65.2
67893;DHT22;54688;52.376;16.744;2022-08-14T06:25:15;19.7;65.2
67893;DHT22;54688;52.376;16.744;2022-08-14T06:28:18;19.8;65.3
67893;DHT22;54688;52.376;16.744;2022-08-14T06:31:22;19.9;64.3
67893;DHT22;54688;52.376;16.744;2022-08-14T06:34:24;19.9;65
67893;DHT22;54688;52.376;16.744;2022-08-14T06:37:26;20;64.9
67893;DHT22;54688;52.376;16.744;2022-08-14T06:40:30;20;63.9
67893;DHT22;54688;52.376;16.744;2022-08-14T06:43:33;20;64.2
67893;DHT22;54688;52.376;16.744;2022-08-14T06:46:36;20.1;64.1
67893;DHT22;54688;52.376;16.744;2022-08-14T06:49:38;20.2;64.1
67893;DHT22;54688;52.376;16.744;2022-08-14T06:52:41;20.3;64.4
67893;DHT22;54688;52.376;16.744;2022-08-14T06:55:44;20.4;63.4
67893;DHT22;54688;52.376;16.744;2022-08-14T06:58:48;20.4;62.8
67893;DHT22;54688;52.376;16.744;2022-08-14T07:01:50;20.6;61.1
67893;DHT22;54688;52.376;16.744;2022-08-14T07:04:53;20.8;60.7
67893;DHT22;54688;52.376;16.744;2022-08-14T07:07:56;20.9;60.7
67893;DHT22;54688;52.376;16.744;2022-08-14T07:10:58;21.1;60.3
67893;DHT22;54688;52.376;16.744;2022-08-14T07:14:01;21.2;59.6
67893;DHT22;54688;52.376;16.744;2022-08-14T07:17:03;21.3;59.7
67893;DHT22;54688;52.376;16.744;2022-08-14T07:20:07;21.3;59.4
67893;DHT22;54688;52.376;16.744;2022-08-14T07:23:10;21.5;59.7
67893;DHT22;54688;52.376;16.744;2022-08-14T07:26:12;21.6;59.3
67893;DHT22;54688;52.376;16.744;2022-08-14T07:29:15;21.6;58.2
67893;DHT22;54688;52.376;16.744;2022-08-14T07:32:17;21.7;58.1
67893;DHT22;54688;52.376;16.744;2022-08-14T07:35:19;21.8;57.3
67893;DHT22;54688;52.376;16.744;2022-08-14T07:38:22;21.8;57.5
67893;DHT22;54688;52.376;16.744;2022-08-14T07:41:24;21.8;56.6
67893;DHT22;54688;52.376;16.744;2022-08-14T07:44:27;21.8;57.1
67893;DHT22;54688;52.376;16.744;2022-08-14T07:47:29;21.9;57.4
67893;DHT22;54688;52.376;16.744;2022-08-14T07:50:32;22;57.2
67893;DHT22;54688;52.376;16.744;2022-08-14T07:53:35;22;56.5
67893;DHT22;54688;52.376;16.744;2022-08-14T07:56:38;22;56.5
67893;DHT22;54688;52.376;16.744;2022-08-14T07:59:40;22.1;56.6
67893;DHT22;54688;52.376;16.744;2022-08-14T08:02:44;22.1;56.2
67893;DHT22;54688;52.376;16.744;2022-08-14T08:05:49;22.1;56.3
67893;DHT22;54688;52.376;16.744;2022-08-14T08:08:52;22.1;56.5
67893;DHT22;54688;52.376;16.744;2022-08-14T08:11:56;22.2;56.5
67893;DHT22;54688;52.376;16.744;2022-08-14T08:14:59;22.3;55.6
67893;DHT22;54688;52.376;16.744;2022-08-14T08:18:02;22.5;56.4
67893;DHT22;54688;52.376;16.744;2022-08-14T08:21:05;22.7;56.5
67893;DHT22;54688;52.376;16.744;2022-08-14T08:24:07;22.8;56.5
67893;DHT22;54688;52.376;16.744;2022-08-14T08:27:13;23;55.7
67893;DHT22;54688;52.376;16.744;2022-08-14T08:30:17;23.2;55.8
67893;DHT22;54688;52.376;16.744;2022-08-14T08:33:19;23.4;55.2
67893;DHT22;54688;52.376;16.744;2022-08-14T08:36:24;23.5;55.8
67893;DHT22;54688;52.376;16.744;2022-08-14T08:39:26;23.6;53.9
67893;DHT22;54688;52.376;16.744;2022-08-14T08:42:29;23.8;52.7
67893;DHT22;54688;52.376;16.744;2022-08-14T08:45:33;23.9;52.4
67893;DHT22;54688;52.376;16.744;2022-08-14T08:48:42;24.1;51.6
67893;DHT22;54688;52.376;16.744;2022-08-14T08:51:45;24;51.4
67893;DHT22;54688;52.376;16.744;2022-08-14T08:54:51;24.1;52.4
67893;DHT22;54688;52.376;16.744;2022-08-14T08:57:55;24;51.9
67893;DHT22;54688;52.376;16.744;2022-08-14T09:00:59;24;52.1
67893;DHT22;54688;52.376;16.744;2022-08-14T09:04:01;24.1;51.4
67893;DHT22;54688;52.376;16.744;2022-08-14T09:07:06;24;51
67893;DHT22;54688;52.376;16.744;2022-08-14T09:10:09;24;50.8
67893;DHT22;54688;52.376;16.744;2022-08-14T09:13:12;24;51.5
67893;DHT22;54688;52.376;16.744;2022-08-14T09:16:17;23.9;52.1
67893;DHT22;54688;52.376;16.744;2022-08-14T09:19:21;24;52.6
67893;DHT22;54688;52.376;16.744;2022-08-14T09:22:23;24;51.3
67893;DHT22;54688;52.376;16.744;2022-08-14T09:25:26;24.1;50.4
67893;DHT22;54688;52.376;16.744;2022-08-14T09:28:28;24.1;50.7
67893;DHT22;54688;52.376;16.744;2022-08-14T09:31:31;24.2;51.7
67893;DHT22;54688;52.376;16.744;2022-08-14T09:34:40;24.4;50.7
67893;DHT22;54688;52.376;16.744;2022-08-14T09:37:53;24.5;50.4
67893;DHT22;54688;52.376;16.744;2022-08-14T09:41:08;24.6;49.5
67893;DHT22;54688;52.376;16.744;2022-08-14T09:44:16;24.7;49.4
67893;DHT22;54688;52.376;16.744;2022-08-14T09:47:45;24.8;48.7
67893;DHT22;54688;52.376;16.744;2022-08-14T09:50:50;24.9;49.8
67893;DHT22;54688;52.376;16.744;2022-08-14T09:53:59;24.9;48.5
67893;DHT22;54688;52.376;16.744;2022-08-14T09:57:03;24.9;48.2
67893;DHT22;54688;52.376;16.744;2022-08-14T10:00:09;25;49.7
67893;DHT22;54688;52.376;16.744;2022-08-14T10:03:23;25.1;48.8
67893;DHT22;54688;52.376;16.744;2022-08-14T10:06:27;25.3;48.4
67893;DHT22;54688;52.376;16.744;2022-08-14T10:09:30;25.6;49
67893;DHT22;54688;52.376;16.744;2022-08-14T10:12:41;25.9;49.1
67893;DHT22;54688;52.376;16.744;2022-08-14T10:15:44;26.3;46.1
67893;DHT22;54688;52.376;16.744;2022-08-14T10:18:47;26.6;46.4
67893;DHT22;54688;52.376;16.744;2022-08-14T10:21:57;27;45.2
67893;DHT22;54688;52.376;16.744;2022-08-14T10:25:08;27.2;43.5
67893;DHT22;54688;52.376;16.744;2022-08-14T10:28:12;27.5;42.3
67893;DHT22;54688;52.376;16.744;2022-08-14T10:31:15;27.7;42.4
67893;DHT22;54688;52.376;16.744;2022-08-14T10:34:18;27.9;43
67893;DHT22;54688;52.376;16.744;2022-08-14T10:37:21;28;42
67893;DHT22;54688;52.376;16.744;2022-08-14T10:40:24;28.2;43.5
67893;DHT22;54688;52.376;16.744;2022-08-14T10:43:28;28.3;42.3
67893;DHT22;54688;52.376;16.744;2022-08-14T10:46:37;28.4;41.4
67893;DHT22;54688;52.376;16.744;2022-08-14T10:49:42;28.5;42.7
67893;DHT22;54688;52.376;16.744;2022-08-14T10:52:45;28.6;41.3
67893;DHT22;54688;52.376;16.744;2022-08-14T10:55:58;28.7;40.9
67893;DHT22;54688;52.376;16.744;2022-08-14T10:59:01;28.8;42.1
67893;DHT22;54688;52.376;16.744;2022-08-14T11:02:14;28.9;41.3
67893;DHT22;54688;52.376;16.744;2022-08-14T11:05:18;29;41
67893;DHT22;54688;52.376;16.744;2022-08-14T11:08:28;29.1;40.5
67893;DHT22;54688;52.376;16.744;2022-08-14T11:11:32;29.1;41.4
67893;DHT22;54688;52.376;16.744;2022-08-14T11:14:48;29.1;41.8
67893;DHT22;54688;52.376;16.744;2022-08-14T11:17:52;29.2;40.5
67893;DHT22;54688;52.376;16.744;2022-08-14T11:20:56;29.2;41.3
67893;DHT22;54688;52.376;16.744;2022-08-14T11:23:59;29.2;39
67893;DHT22;54688;52.376;16.744;2022-08-14T11:27:03;29.2;39.7
67893;DHT22;54688;52.376;16.744;2022-08-14T11:30:08;29.1;41.7
67893;DHT22;54688;52.376;16.744;2022-08-14T11:33:12;29.2;41
67893;DHT22;54688;52.376;16.744;2022-08-14T11:36:14;29.1;41.7
67893;DHT22;54688;52.376;16.744;2022-08-14T11:39:17;29.3;41.3
67893;DHT22;54688;52.376;16.744;2022-08-14T11:42:21;29.4;40.6
67893;DHT22;54688;52.376;16.744;2022-08-14T11:45:26;29.6;39.6
67893;DHT22;54688;52.376;16.744;2022-08-14T11:48:29;29.8;40.2
67893;DHT22;54688;52.376;16.744;2022-08-14T11:51:32;29.9;39.4
67893;DHT22;54688;52.376;16.744;2022-08-14T11:54:34;30.1;38.8
67893;DHT22;54688;52.376;16.744;2022-08-14T11:57:37;30.2;38.6
67893;DHT22;54688;52.376;16.744;2022-08-14T12:00:47;30.3;39
67893;DHT22;54688;52.376;16.744;2022-08-14T12:03:50;30.3;39.2
67893;DHT22;54688;52.376;16.744;2022-08-14T12:06:53;30.5;38.5
67893;DHT22;54688;52.376;16.744;2022-08-14T12:09:56;30.6;40.1
67893;DHT22;54688;52.376;16.744;2022-08-14T12:13:09;30.6;39
67893;DHT22;54688;52.376;16.744;2022-08-14T12:16:12;30.7;38.9
67893;DHT22;54688;52.376;16.744;2022-08-14T12:19:16;30.8;39.8
67893;DHT22;54688;52.376;16.744;2022-08-14T12:22:19;31.1;38.2
67893;DHT22;54688;52.376;16.744;2022-08-14T12:25:33;31.3;38.2
67893;DHT22;54688;52.376;16.744;2022-08-14T12:28:36;31.5;37.5
67893;DHT22;54688;52.376;16.744;2022-08-14T12:31:39;31.9;36.5
67893;DHT22;54688;52.376;16.744;2022-08-14T12:34:42;32.1;36.3
67893;DHT22;54688;52.376;16.744;2022-08-14T12:37:46;32.3;36.1
67893;DHT22;54688;52.376;16.744;2022-08-14T12:40:51;32.4;34.9
67893;DHT22;54688;52.376;16.744;2022-08-14T12:43:54;32.4;35
67893;DHT22;54688;52.376;16.744;2022-08-14T12:47:01;32.3;35.8
67893;DHT22;54688;52.376;16.744;2022-08-14T12:50:05;32.2;35.4
67893;DHT22;54688;52.376;16.744;2022-08-14T12:53:09;31.9;35.5
67893;DHT22;54688;52.376;16.744;2022-08-14T12:56:15;31.5;37.6
67893;DHT22;54688;52.376;16.744;2022-08-14T12:59:18;31.1;39.7
67893;DHT22;54688;52.376;16.744;2022-08-14T13:02:35;30.7;40
67893;DHT22;54688;52.376;16.744;2022-08-14T13:05:39;30.4;43.2
67893;DHT22;54688;52.376;16.744;2022-08-14T13:08:42;30.3;42.7
67893;DHT22;54688;52.376;16.744;2022-08-14T13:11:46;30.4;44.6
67893;DHT22;54688;52.376;16.744;2022-08-14T13:14:50;30.7;44.6
67893;DHT22;54688;52.376;16.744;2022-08-14T13:17:53;31.1;41.1
67893;DHT22;54688;52.376;16.744;2022-08-14T13:20:56;31.5;40.6
67893;DHT22;54688;52.376;16.744;2022-08-14T13:24:00;31.5;39.4
67893;DHT22;54688;52.376;16.744;2022-08-14T13:27:04;31.5;39.4
67893;DHT22;54688;52.376;16.744;2022-08-14T13:30:08;31.4;39.7
67893;DHT22;54688;52.376;16.744;2022-08-14T13:33:12;31.3;39.4
67893;DHT22;54688;52.376;16.744;2022-08-14T13:36:15;31.4;39.7
67893;DHT22;54688;52.376;16.744;2022-08-14T13:39:21;31.5;39.4
67893;DHT22;54688;52.376;16.744;2022-08-14T13:42:25;31.6;39.3
67893;DHT22;54688;52.376;16.744;2022-08-14T13:45:28;32;39.8
67893;DHT22;54688;52.376;16.744;2022-08-14T13:48:31;32.3;39.1
67893;DHT22;54688;52.376;16.744;2022-08-14T13:51:34;32.6;37.5
67893;DHT22;54688;52.376;16.744;2022-08-14T13:54:39;32.9;37
67893;DHT22;54688;52.376;16.744;2022-08-14T13:57:44;32.9;37.3
67893;DHT22;54688;52.376;16.744;2022-08-14T14:00:49;32.7;36.4
67893;DHT22;54688;52.376;16.744;2022-08-14T14:03:53;32.5;37.7
67893;DHT22;54688;52.376;16.744;2022-08-14T14:06:58;32.3;37.1
67893;DHT22;54688;52.376;16.744;2022-08-14T14:10:05;32;36.7
67893;DHT22;54688;52.376;16.744;2022-08-14T14:13:09;31.7;38.1
67893;DHT22;54688;52.376;16.744;2022-08-14T14:16:12;31.3;37.3
67893;DHT22;54688;52.376;16.744;2022-08-14T14:19:16;31.1;37.9
67893;DHT22;54688;52.376;16.744;2022-08-14T14:22:19;31;38.7
67893;DHT22;54688;52.376;16.744;2022-08-14T14:25:22;30.9;39.8
67893;DHT22;54688;52.376;16.744;2022-08-14T14:28:25;30.7;39.3
67893;DHT22;54688;52.376;16.744;2022-08-14T14:31:31;30.5;39.5
67893;DHT22;54688;52.376;16.744;2022-08-14T14:34:33;30.3;40
67893;DHT22;54688;52.376;16.744;2022-08-14T14:37:37;30.1;39.1
67893;DHT22;54688;52.376;16.744;2022-08-14T14:40:41;30;38.6
67893;DHT22;54688;52.376;16.744;2022-08-14T14:43:45;29.9;39.7
67893;DHT22;54688;52.376;16.744;2022-08-14T14:46:50;30;39.3
67893;DHT22;54688;52.376;16.744;2022-08-14T14:49:52;30;39.1
67893;DHT22;54688;52.376;16.744;2022-08-14T14:52:56;30;40.6
67893;DHT22;54688;52.376;16.744;2022-08-14T14:55:58;30;41.2
67893;DHT22;54688;52.376;16.744;2022-08-14T14:59:02;29.9;40.6
67893;DHT22;54688;52.376;16.744;2022-08-14T15:02:04;29.8;40.3
67893;DHT22;54688;52.376;16.744;2022-08-14T15:05:08;29.7;41.1
67893;DHT22;54688;52.376;16.744;2022-08-14T15:08:12;29.7;40.9
67893;DHT22;54688;52.376;16.744;2022-08-14T15:11:14;29.7;40.8
67893;DHT22;54688;52.376;16.744;2022-08-14T15:14:16;29.7;41.9
67893;DHT22;54688;52.376;16.744;2022-08-14T15:17:20;29.7;40.7
67893;DHT22;54688;52.376;16.744;2022-08-14T15:20:22;29.7;40.9
67893;DHT22;54688;52.376;16.744;2022-08-14T15:23:24;29.7;41.6
67893;DHT22;54688;52.376;16.744;2022-08-14T15:26:26;29.6;42
67893;DHT22;54688;52.376;16.744;2022-08-14T15:29:28;29.6;43.4
67893;DHT22;54688;52.376;16.744;2022-08-14T15:32:31;29.6;41.4
67893;DHT22;54688;52.376;16.744;2022-08-14T15:35:33;29.6;41.1
67893;DHT22;54688;52.376;16.744;2022-08-14T15:38:35;29.8;42
67893;DHT22;54688;52.376;16.744;2022-08-14T15:41:38;30.3;40.2
67893;DHT22;54688;52.376;16.744;2022-08-14T15:44:40;30.9;39.3
67893;DHT22;54688;52.376;16.744;2022-08-14T15:47:43;31.5;37.4
67893;DHT22;54688;52.376;16.744;2022-08-14T15:50:45;31.7;36.9
67893;DHT22;54688;52.376;16.744;2022-08-14T15:53:47;31.9;36.8
67893;DHT22;54688;52.376;16.744;2022-08-14T15:56:54;31.8;36.3
67893;DHT22;54688;52.376;16.744;2022-08-14T15:59:56;31.6;36
67893;DHT22;54688;52.376;16.744;2022-08-14T16:02:59;31.4;37
67893;DHT22;54688;52.376;16.744;2022-08-14T16:06:02;31.3;37.8
67893;DHT22;54688;52.376;16.744;2022-08-14T16:09:05;31;37.5
67893;DHT22;54688;52.376;16.744;2022-08-14T16:12:07;30.9;37.3
67893;DHT22;54688;52.376;16.744;2022-08-14T16:15:09;30.7;37.5
67893;DHT22;54688;52.376;16.744;2022-08-14T16:18:13;30.6;37.9
67893;DHT22;54688;52.376;16.744;2022-08-14T16:21:17;30.5;38.1
67893;DHT22;54688;52.376;16.744;2022-08-14T16:24:21;30.6;38
67893;DHT22;54688;52.376;16.744;2022-08-14T16:27:23;30.8;36
67893;DHT22;54688;52.376;16.744;2022-08-14T16:30:25;30.9;37.1
67893;DHT22;54688;52.376;16.744;2022-08-14T16:33:27;31;36.2
67893;DHT22;54688;52.376;16.744;2022-08-14T16:36:30;31.2;35
67893;DHT22;54688;52.376;16.744;2022-08-14T16:39:32;31.4;35.8
67893;DHT22;54688;52.376;16.744;2022-08-14T16:42:39;31.4;35.1
67893;DHT22;54688;52.376;16.744;2022-08-14T16:45:42;31.4;35.5
67893;DHT22;54688;52.376;16.744;2022-08-14T16:48:45;31.4;35.3
67893;DHT22;54688;52.376;16.744;2022-08-14T16:51:48;31.4;35.6
67893;DHT22;54688;52.376;16.744;2022-08-14T16:54:50;31.4;36.6
67893;DHT22;54688;52.376;16.744;2022-08-14T16:57:54;31.3;35.9
67893;DHT22;54688;52.376;16.744;2022-08-14T17:01:10;31.2;35.7
67893;DHT22;54688;52.376;16.744;2022-08-14T17:04:14;31.2;36.2
67893;DHT22;54688;52.376;16.744;2022-08-14T17:07:18;31.3;36.5
67893;DHT22;54688;52.376;16.744;2022-08-14T17:10:20;31.4;36
67893;DHT22;54688;52.376;16.744;2022-08-14T17:13:23;31.4;37
67893;DHT22;54688;52.376;16.744;2022-08-14T17:16:29;31.5;36.2
67893;DHT22;54688;52.376;16.744;2022-08-14T17:19:35;31.7;36.3
67893;DHT22;54688;52.376;16.744;2022-08-14T17:22:41;31.7;35.8
67893;DHT22;54688;52.376;16.744;2022-08-14T17:25:44;31.9;35.8
67893;DHT22;54688;52.376;16.744;2022-08-14T17:28:47;31.9;34.5
67893;DHT22;54688;52.376;16.744;2022-08-14T17:32:06;31.9;35.7
67893;DHT22;54688;52.376;16.744;2022-08-14T17:35:11;31.8;35.6
67893;DHT22;54688;52.376;16.744;2022-08-14T17:38:14;31.6;35.7
67893;DHT22;54688;52.376;16.744;2022-08-14T17:41:17;31.3;36.6
67893;DHT22;54688;52.376;16.744;2022-08-14T17:44:21;31.1;36.7
67893;DHT22;54688;52.376;16.744;2022-08-14T17:47:25;30.7;36.8
67893;DHT22;54688;52.376;16.744;2022-08-14T17:50:44;30.3;37.5
67893;DHT22;54688;52.376;16.744;2022-08-14T17:53:48;30;38.4
67893;DHT22;54688;52.376;16.744;2022-08-14T17:56:51;29.7;39
67893;DHT22;54688;52.376;16.744;2022-08-14T17:59:55;29.4;38.8
67893;DHT22;54688;52.376;16.744;2022-08-14T18:02:57;29.1;39.7
67893;DHT22;54688;52.376;16.744;2022-08-14T18:05:59;28.9;40.6
67893;DHT22;54688;52.376;16.744;2022-08-14T18:09:02;28.6;40.7
67893;DHT22;54688;52.376;16.744;2022-08-14T18:12:05;28.4;41.1
67893;DHT22;54688;52.376;16.744;2022-08-14T18:15:10;28.2;42.3
67893;DHT22;54688;52.376;16.744;2022-08-14T18:18:14;28;42
67893;DHT22;54688;52.376;16.744;2022-08-14T18:21:18;27.8;43.2
67893;DHT22;54688;52.376;16.744;2022-08-14T18:24:21;27.6;43.8
67893;DHT22;54688;52.376;16.744;2022-08-14T18:27:28;27.5;45.1
67893;DHT22;54688;52.376;16.744;2022-08-14T18:30:33;27.3;44.8
67893;DHT22;54688;52.376;16.744;2022-08-14T18:33:35;27.2;46.1
67893;DHT22;54688;52.376;16.744;2022-08-14T18:36:39;27.1;46.3
67893;DHT22;54688;52.376;16.744;2022-08-14T18:39:43;27;46.9
67893;DHT22;54688;52.376;16.744;2022-08-14T18:42:48;26.8;47.8
67893;DHT22;54688;52.376;16.744;2022-08-14T18:45:56;26.7;47.2
67893;DHT22;54688;52.376;16.744;2022-08-14T18:49:15;26.5;48.3
67893;DHT22;54688;52.376;16.744;2022-08-14T18:52:17;26.4;47.9
67893;DHT22;54688;52.376;16.744;2022-08-14T18:55:38;26.2;48.5
67893;DHT22;54688;52.376;16.744;2022-08-14T18:58:47;26.1;49.3
67893;DHT22;54688;52.376;16.744;2022-08-14T19:01:50;26;49.6
67893;DHT22;54688;52.376;16.744;2022-08-14T19:04:52;25.9;50
67893;DHT22;54688;52.376;16.744;2022-08-14T19:08:18;25.8;50.7
67893;DHT22;54688;52.376;16.744;2022-08-14T19:11:42;25.6;50.8
67893;DHT22;54688;52.376;16.744;2022-08-14T19:14:45;25.4;51.5
67893;DHT22;54688;52.376;16.744;2022-08-14T19:17:48;25.3;51.1
67893;DHT22;54688;52.376;16.744;2022-08-14T19:20:51;25.1;51.9
67893;DHT22;54688;52.376;16.744;2022-08-14T19:24:03;25;53.1
67893;DHT22;54688;52.376;16.744;2022-08-14T19:27:15;24.9;53.5
67893;DHT22;54688;52.376;16.744;2022-08-14T19:30:22;24.7;54.1
67893;DHT22;54688;52.376;16.744;2022-08-14T19:33:56;24.6;53.8
67893;DHT22;54688;52.376;16.744;2022-08-14T19:36:58;24.5;53.1
67893;DHT22;54688;52.376;16.744;2022-08-14T19:40:01;24.3;53.2
67893;DHT22;54688;52.376;16.744;2022-08-14T19:43:04;24.2;53.3
67893;DHT22;54688;52.376;16.744;2022-08-14T19:46:06;24;53.4
67893;DHT22;54688;52.376;16.744;2022-08-14T19:49:09;23.8;53.6